WetterOnline ( http://www.wetteronline.de )

Wetter aktuell Neubrandenburg

Aktuelles Wetter: Grünow (57m)

6-stündlich | Neueste Meldungen
Ortszeit Temperatur Wetter
Do, 26.04. 20:00 9.4° C wolkig
Do, 26.04. 14:00 11.3° C leicht bewölkt
Do, 26.04. 8:00 8.0° C leicht bewölkt
Do, 26.04. 2:00 6.3° C bewölkt
Mi, 25.04. 20:00 9.3° C bewölkt
Mi, 25.04. 14:00 14.1° C starker Regen
Mi, 25.04. 8:00 11.6° C bewölkt
Mi, 25.04. 2:00 10.6° C leichter Regen
Ortszeit Temperatur Wetter
Fr, 27.04. 0:30 6.7° C fast wolkenlos
Fr, 27.04. 0:20 6.7° C fast wolkenlos
Fr, 27.04. 0:10 7.1° C leicht bewölkt
Fr, 27.04. 0:00 7.2° C bewölkt
Do, 26.04. 23:50 7.2° C bewölkt
Do, 26.04. 23:40 7.2° C wolkig
Do, 26.04. 23:30 7.5° C bewölkt
Do, 26.04. 23:00 7.4° C leicht bewölkt
Do, 26.04. 22:30 7.2° C wolkenlos
Do, 26.04. 22:00 7.3° C leicht bewölkt
Do, 26.04. 21:30 7.6° C wolkenlos
Ortszeit Relative Feuchte Sichtweite
Do, 26.04. 20:00 77% 65 km
Do, 26.04. 14:00 72% 27 km
Do, 26.04. 8:00 86% 21 km
Do, 26.04. 2:00 95% 19 km
Mi, 25.04. 20:00 75% 70 km
Mi, 25.04. 14:00 79% 27 km
Mi, 25.04. 8:00 91% 7 km
Mi, 25.04. 2:00 91% 5.0 km
Ortszeit Relative Feuchte Sichtweite
Fr, 27.04. 0:30 86% 70 km
Fr, 27.04. 0:20 86% -
Fr, 27.04. 0:10 84% -
Fr, 27.04. 0:00 85% 70 km
Do, 26.04. 23:50 85% -
Do, 26.04. 23:40 86% -
Do, 26.04. 23:30 87% 70 km
Do, 26.04. 23:00 88% 55 km
Do, 26.04. 22:30 88% 60 km
Do, 26.04. 22:00 88% 55 km
Do, 26.04. 21:30 87% 55 km
Ortszeit Niederschlagsmenge Niederschlagsart
Do, 26.04. 20:00 3 l/m2 in 12 Std. Regen
Do, 26.04. 14:00 1 l/m2 in 6 Std. Regen
Do, 26.04. 8:00 0.1 l/m2 in 12 Std. Regen
Do, 26.04. 2:00 0.0 l/m2 in 6 Std. -
Mi, 25.04. 20:00 7 l/m2 in 12 Std. Regen
Mi, 25.04. 14:00 7 l/m2 in 6 Std. Regenschauer
Mi, 25.04. 8:00 0.8 l/m2 in 12 Std. Regen
Mi, 25.04. 2:00 0.2 l/m2 in 6 Std. Regen
Ortszeit Niederschlagsmenge Niederschlagsart
Fr, 27.04. 0:30 0.0 l/m2 in 1 Std. -
Fr, 27.04. 0:20 keine Meldung -
Fr, 27.04. 0:10 keine Meldung -
Fr, 27.04. 0:00 0.0 l/m2 in 1 Std. -
Do, 26.04. 23:50 keine Meldung -
Do, 26.04. 23:40 keine Meldung -
Do, 26.04. 23:30 0.0 l/m2 in 1 Std. -
Do, 26.04. 23:00 0.1 l/m2 in 1 Std. Regen
Do, 26.04. 22:30 0.0 l/m2 in 1 Std. -
Do, 26.04. 22:00 0.0 l/m2 in 1 Std. -
Do, 26.04. 21:30 0.0 l/m2 in 1 Std. -
Ortszeit Stärke Spitze Richtung
km/h Bft. km/h Grad Sektor
Do, 26.04. 20:00 17 3 54 240° SW
Do, 26.04. 14:00 28 4 39 290° W
Do, 26.04. 8:00 11 2 25 240° SW
Do, 26.04. 2:00 13 3 24 210° SW
Mi, 25.04. 20:00 18 3 76 290° W
Mi, 25.04. 14:00 33 5 56 260° W
Mi, 25.04. 8:00 17 3 31 190° S
Mi, 25.04. 2:00 11 2 29 220° SW
Ortszeit Stärke Spitze Richtung
km/h Bft. km/h Grad Sektor
Fr, 27.04. 0:30 14 3 25 240° SW
Fr, 27.04. 0:20 14 3 - 240° SW
Fr, 27.04. 0:10 14 3 - 240° SW
Fr, 27.04. 0:00 18 3 29 250° W
Do, 26.04. 23:50 18 3 - 250° W
Do, 26.04. 23:40 19 3 - 250° W
Do, 26.04. 23:30 17 3 26 250° W
Do, 26.04. 23:00 17 3 26 240° SW
Do, 26.04. 22:30 14 3 22 240° SW
Do, 26.04. 22:00 13 3 20 230° SW
Do, 26.04. 21:30 15 3 20 240° SW
Ortszeit Untergrenze Bedeckung Gattung
total tief tief mittel hoch
Do, 26.04. 20:00 1020 m 4/8 6/8 - - -
Do, 26.04. 14:00 690 m 1/8 4/8 - - -
Do, 26.04. 8:00 1500 m 3/8 3/8 - - -
Do, 26.04. 2:00 840 m 8/8 5/8 - - -
Mi, 25.04. 20:00 750 m 7/8 7/8 - - -
Mi, 25.04. 14:00 960 m 7/8 7/8 - - -
Mi, 25.04. 8:00 930 m 8/8 7/8 - - -
Mi, 25.04. 2:00 1500 m 7/8 7/8 - - -
Ortszeit Bedeckungsgrad in Achtel und Wolkenuntergrenze
Fr, 27.04. 0:30 1(2400m)
Fr, 27.04. 0:20 1(2400m)
Fr, 27.04. 0:10 1(1500m) 3(2400m) 3(3000m)
Fr, 27.04. 0:00 2(1500m) 4(2400m) 8(3000m)
Do, 26.04. 23:50 2(1500m) 4(2400m) 8(3000m)
Do, 26.04. 23:40 1(1500m) 2(2400m) 8(3000m)
Do, 26.04. 23:30 4(2400m) 8(3000m)
Do, 26.04. 23:00 3(2700m) 4(3600m)
Do, 26.04. 22:30 keine Wolken
Do, 26.04. 22:00 2(4200m)
Do, 26.04. 21:30 3(4200m)
Ortszeit Luftdruck NN (hPa) Tendenz (hPa in 3 Std.)
Do, 26.04. 20:00 1013 + 1,2
Do, 26.04. 14:00 1011 + 0,3
Do, 26.04. 8:00 1010 + 0,5
Do, 26.04. 2:00 1010 - 0,1
Mi, 25.04. 20:00 1009 + 3,1
Mi, 25.04. 14:00 1002 - 1,1
Mi, 25.04. 8:00 1004 - 2,7
Mi, 25.04. 2:00 1010 - 1,8
Ortszeit Luftdruck NN (hPa) Tendenz (hPa in 3 Std.)
Fr, 27.04. 0:30 1015 + 1,0
Fr, 27.04. 0:20 1015 keine Meldung
Fr, 27.04. 0:10 1015 keine Meldung
Fr, 27.04. 0:00 1015 + 1,0
Do, 26.04. 23:50 1015 keine Meldung
Do, 26.04. 23:40 1015 keine Meldung
Do, 26.04. 23:30 1015 + 1,2
Do, 26.04. 23:00 1015 + 1,5
Do, 26.04. 22:30 1015 + 1,6
Do, 26.04. 22:00 1015 + 1,8
Do, 26.04. 21:30 1014 + 1,5
Ortszeit Schneehöhe (cm)
Do, 26.04. 20:00 0
Do, 26.04. 14:00 0
Do, 26.04. 8:00 0
Do, 26.04. 2:00 0
Mi, 25.04. 20:00 0
Mi, 25.04. 14:00 0
Mi, 25.04. 8:00 0
Mi, 25.04. 2:00 0
Ortszeit Schneehöhe (cm)
Fr, 27.04. 0:30 0
Fr, 27.04. 0:20 0
Fr, 27.04. 0:10 0
Fr, 27.04. 0:00 0
Do, 26.04. 23:50 0
Do, 26.04. 23:40 0
Do, 26.04. 23:30 0
Do, 26.04. 23:00 0
Do, 26.04. 22:30 0
Do, 26.04. 22:00 0
Do, 26.04. 21:30 0
Link zu dieser Seite / Seite empfehlen

Das Wetter in ...